| time (UTC) | temp C | wind direction | speed KPH | gust KPH | rain 1hr cm | rain 24hr cm | rain mn cm | humidity % | barometer mb |
| 20260507225003 | 16 | 330 | 17.7 | 30.6 | 0.00 | 3.91 | 3.89 | 92 | 999.1 |
| 20260507224502 | 16 | 170 | 20.9 | 33.8 | 0.00 | 3.91 | 3.89 | 92 | 998.9 |
| 20260507224006 | 16 | 170 | 20.9 | 33.8 | 0.00 | 3.91 | 3.89 | 91 | 999.0 |
| 20260507223501 | 16 | 196 | 19.3 | 33.8 | 0.00 | 3.91 | 3.89 | 92 | 999.0 |
| 20260507222504 | 16 | 173 | 20.9 | 33.8 | 0.00 | 3.91 | 3.89 | 91 | 998.9 |
| 20260507222003 | 16 | 222 | 20.9 | 32.2 | 0.00 | 3.91 | 3.89 | 92 | 998.8 |
| 20260507221502 | 16 | 331 | 19.3 | 32.2 | 0.00 | 3.91 | 3.89 | 92 | 998.8 |
| 20260507221003 | 16 | 308 | 17.7 | 32.2 | 0.00 | 3.91 | 3.89 | 93 | 998.7 |
| 20260507215503 | 16 | 199 | 20.9 | 35.4 | 0.00 | 3.91 | 3.89 | 93 | 998.0 |
| 20260507214502 | 16 | 235 | 17.7 | 30.6 | 0.00 | 3.91 | 3.89 | 96 | 997.7 |
| 20260507214003 | 16 | 326 | 16.1 | 27.4 | 0.00 | 3.91 | 3.89 | 96 | 997.6 |
| 20260507213501 | 16 | 204 | 16.1 | 27.4 | 0.00 | 3.91 | 3.89 | 96 | 997.6 |
| 20260507213003 | 16 | 171 | 14.5 | 27.4 | 0.00 | 3.91 | 3.89 | 97 | 997.8 |
| 20260507212501 | 16 | 173 | 12.9 | 25.7 | 0.00 | 3.91 | 3.89 | 98 | 998.1 |
| 20260507212003 | 16 | 245 | 16.1 | 27.4 | 0.00 | 3.91 | 3.89 | 98 | 998.5 |
| 20260507211502 | 16 | 172 | 20.9 | 35.4 | 0.00 | 3.91 | 3.89 | 98 | 998.4 |
| 20260507211002 | 15 | 277 | 27.4 | 35.4 | 0.00 | 3.91 | 3.89 | 99 | 998.3 |
| 20260507210502 | 15 | 177 | 30.6 | 38.6 | 0.00 | 3.91 | 3.89 | 99 | 998.4 |
| 20260507210007 | 15 | 168 | 30.6 | 38.6 | 0.03 | 3.91 | 3.89 | 99 | 998.2 |
| 20260507205502 | 15 | 170 | 30.6 | 38.6 | 0.03 | 3.91 | 3.89 | 100 | 998.6 |
| 20260507204501 | 15 | 167 | 30.6 | 41.8 | 0.03 | 3.91 | 3.89 | 100 | 998.7 |
| 20260507204004 | 15 | 169 | 25.7 | 41.8 | 0.03 | 3.91 | 3.89 | 99 | 999.0 |
| 20260507203503 | 16 | 334 | 20.9 | 29.0 | 0.03 | 3.91 | 3.89 | 100 | 999.0 |
| 20260507203006 | 16 | 336 | 20.9 | 29.0 | 0.03 | 3.91 | 3.89 | 100 | 999.0 |
| 20260507202502 | 16 | 180 | 22.5 | 32.2 | 0.03 | 3.91 | 3.89 | 100 | 999.3 |
| 20260507202002 | 16 | 207 | 20.9 | 32.2 | 0.03 | 3.91 | 3.89 | 100 | 999.2 |
| 20260507201502 | 16 | 329 | 19.3 | 32.2 | 0.03 | 3.91 | 3.89 | 100 | 999.4 |
| 20260507201003 | 16 | 266 | 19.3 | 32.2 | 0.03 | 3.91 | 3.89 | 100 | 999.6 |
| 20260507200504 | 16 | 175 | 16.1 | 32.2 | 0.03 | 3.91 | 3.89 | 100 | 999.5 |
| 20260507200007 | 16 | 242 | 14.5 | 22.5 | 0.00 | 3.89 | 3.86 | 100 | 999.4 |
| 20260507195503 | 16 | 338 | 11.3 | 20.9 | 0.00 | 3.89 | 3.86 | 100 | 999.4 |
| 20260507195003 | 16 | 260 | 8.0 | 19.3 | 0.00 | 3.89 | 3.86 | 100 | 999.4 |
| 20260507194502 | 16 | 345 | 8.0 | 14.5 | 0.00 | 3.89 | 3.86 | 100 | 998.9 |
| 20260507194004 | 16 | 339 | 6.4 | 12.9 | 0.00 | 3.89 | 3.86 | 100 | 999.1 |
| 20260507193501 | 16 | 340 | 6.4 | 14.5 | 0.00 | 3.89 | 3.86 | 100 | 998.7 |
| 20260507193006 | 16 | 343 | 6.4 | 14.5 | 0.00 | 3.89 | 3.86 | 100 | 998.6 |
| 20260507192502 | 16 | 338 | 6.4 | 12.9 | 0.00 | 3.89 | 3.86 | 100 | 998.5 |
| 20260507192005 | 16 | 343 | 8.0 | 14.5 | 0.00 | 3.89 | 3.86 | 100 | 998.6 |
| 20260507191502 | 16 | 345 | 8.0 | 14.5 | 0.00 | 3.89 | 3.86 | 100 | 998.8 |
| 20260507191002 | 16 | 329 | 9.7 | 16.1 | 0.00 | 3.89 | 3.86 | 100 | 998.9 |
| 20260507190501 | 16 | 336 | 11.3 | 16.1 | 0.00 | 3.89 | 3.86 | 100 | 999.0 |
| 20260507190008 | 16 | 343 | 9.7 | 16.1 | 0.00 | 3.89 | 3.86 | 100 | 999.0 |
| 20260507185004 | 16 | 334 | 8.0 | 12.9 | 0.00 | 3.89 | 3.86 | 100 | 999.0 |
| 20260507184504 | 16 | 331 | 8.0 | 12.9 | 0.00 | 3.89 | 3.86 | 100 | 998.7 |
| 20260507183502 | 16 | 336 | 6.4 | 11.3 | 0.00 | 3.89 | 3.86 | 100 | 998.3 |
| 20260507181501 | 16 | 331 | 8.0 | 12.9 | 0.05 | 3.89 | 3.86 | 100 | 999.2 |
| 20260507181004 | 16 | 308 | 8.0 | 12.9 | 0.05 | 3.89 | 3.86 | 100 | 999.2 |
| 20260507180503 | 16 | 338 | 6.4 | 9.7 | 0.05 | 3.89 | 3.86 | 100 | 999.2 |
| 20260507180006 | 16 | 338 | 6.4 | 9.7 | 0.05 | 3.89 | 3.86 | 100 | 999.3 |
| 20260507175501 | 16 | 332 | 6.4 | 9.7 | 0.05 | 3.89 | 3.86 | 100 | 999.2 |
| 20260507175004 | 16 | 229 | 6.4 | 9.7 | 0.08 | 3.89 | 3.86 | 100 | 999.0 |
| 20260507174501 | 16 | 341 | 6.4 | 11.3 | 0.08 | 3.89 | 3.86 | 100 | 999.0 |
| 20260507174002 | 16 | 335 | 6.4 | 11.3 | 0.10 | 3.89 | 3.86 | 100 | 999.4 |
| 20260507173502 | 16 | 333 | 9.7 | 17.7 | 0.10 | 3.89 | 3.86 | 100 | 999.1 |
| 20260507173006 | 16 | 336 | 11.3 | 17.7 | 0.13 | 3.89 | 3.86 | 100 | 999.6 |
| 20260507172501 | 16 | 329 | 9.7 | 17.7 | 0.10 | 3.86 | 3.84 | 100 | 1000.0 |
| 20260507172003 | 16 | 336 | 6.4 | 14.5 | 0.10 | 3.84 | 3.81 | 100 | 1000.0 |
| 20260507171003 | 16 | 329 | 6.4 | 16.1 | 0.15 | 3.84 | 3.81 | 100 | 999.7 |
| 20260507170501 | 16 | 324 | 3.2 | 11.3 | 0.15 | 3.81 | 3.81 | 100 | 999.3 |
| 20260507165501 | 16 | 337 | 8.0 | 11.3 | 0.23 | 3.81 | 3.81 | 100 | 999.8 |
| 20260507165002 | 16 | 334 | 8.0 | 11.3 | 0.23 | 3.81 | 3.78 | 100 | 1000.0 |
| 20260507164502 | 16 | 336 | 8.0 | 11.3 | 0.23 | 3.81 | 3.78 | 100 | 1000.1 |
| 20260507164003 | 16 | 336 | 8.0 | 12.9 | 0.25 | 3.78 | 3.76 | 100 | 1000.0 |
| 20260507163503 | 16 | 317 | 8.0 | 12.9 | 0.30 | 3.78 | 3.76 | 100 | 1000.2 |
| 20260507163004 | 16 | 336 | 6.4 | 12.9 | 0.30 | 3.76 | 3.73 | 100 | 999.8 |
| 20260507162502 | 16 | 338 | 6.4 | 11.3 | 0.36 | 3.76 | 3.73 | 100 | 999.8 |
| 20260507162002 | 16 | 337 | 4.8 | 11.3 | 0.38 | 3.73 | 3.71 | 100 | 1000.0 |
| 20260507161502 | 16 | 341 | 3.2 | 8.0 | 0.38 | 3.71 | 3.71 | 99 | 999.7 |
| 20260507161002 | 16 | 343 | 6.4 | 14.5 | 0.38 | 3.71 | 3.68 | 100 | 999.6 |
| 20260507160503 | 16 | 331 | 9.7 | 14.5 | 0.38 | 3.68 | 3.66 | 99 | 1000.1 |
| 20260507155500 | 16 | 324 | 17.7 | 29.0 | 0.43 | 3.61 | 3.58 | 99 | 1001.2 |
| 20260507155001 | 16 | 329 | 19.3 | 30.6 | 0.43 | 3.58 | 3.56 | 99 | 1001.2 |
| 20260507154500 | 16 | 328 | 17.7 | 30.6 | 0.46 | 3.56 | 3.53 | 99 | 1001.4 |
| 20260507154003 | 16 | 316 | 16.1 | 25.7 | 0.43 | 3.53 | 3.51 | 99 | 1000.8 |
| 20260507153501 | 16 | 333 | 16.1 | 25.7 | 0.43 | 3.48 | 3.45 | 99 | 1000.7 |
| 20260507153003 | 16 | 335 | 17.7 | 25.7 | 0.41 | 3.43 | 3.43 | 99 | 1000.6 |
| 20260507152502 | 16 | 331 | 19.3 | 27.4 | 0.38 | 3.40 | 3.38 | 99 | 1001.0 |
| 20260507152004 | 16 | 338 | 22.5 | 35.4 | 0.36 | 3.35 | 3.33 | 99 | 1000.9 |
| 20260507151501 | 16 | 335 | 22.5 | 35.4 | 0.36 | 3.33 | 3.33 | 99 | 1001.0 |
| 20260507151003 | 16 | 338 | 20.9 | 35.4 | 0.33 | 3.33 | 3.30 | 99 | 1001.1 |
| 20260507150501 | 16 | 334 | 20.9 | 33.8 | 0.33 | 3.28 | 3.25 | 99 | 1001.1 |
| 20260507150009 | 16 | 275 | 22.5 | 35.4 | 0.30 | 3.25 | 3.23 | 99 | 1001.2 |
| 20260507145502 | 16 | 294 | 22.5 | 35.4 | 0.23 | 3.17 | 3.15 | 99 | 1001.7 |
| 20260507145003 | 16 | 329 | 24.1 | 38.6 | 0.20 | 3.15 | 3.12 | 99 | 1001.4 |
| 20260507144501 | 16 | 174 | 25.7 | 38.6 | 0.18 | 3.10 | 3.07 | 99 | 1001.3 |
| 20260507144003 | 16 | 334 | 29.0 | 43.5 | 0.15 | 3.07 | 3.05 | 99 | 1001.4 |
| 20260507143502 | 16 | 329 | 35.4 | 45.1 | 0.15 | 3.05 | 3.05 | 99 | 1001.5 |
| 20260507143003 | 16 | 163 | 35.4 | 48.3 | 0.13 | 3.05 | 3.02 | 99 | 1001.8 |
| 20260507142502 | 16 | 168 | 33.8 | 56.3 | 0.13 | 3.02 | 3.00 | 99 | 1002.0 |
| 20260507142003 | 16 | 183 | 29.0 | 56.3 | 0.10 | 3.00 | 2.97 | 99 | 1002.1 |
| 20260507141502 | 16 | 295 | 25.7 | 48.3 | 0.08 | 2.97 | 2.97 | 99 | 1002.1 |
| 20260507141003 | 16 | 320 | 24.1 | 41.8 | 0.08 | 2.97 | 2.97 | 99 | 1002.1 |
| 20260507140501 | 16 | 335 | 24.1 | 37.0 | 0.05 | 2.97 | 2.95 | 100 | 1001.4 |
| 20260507140007 | 16 | 337 | 24.1 | 38.6 | 0.05 | 2.95 | 2.92 | 100 | 1000.9 |
| 20260507135502 | 16 | 336 | 22.5 | 38.6 | 0.05 | 2.95 | 2.92 | 100 | 1000.6 |
| 20260507135002 | 16 | 338 | 17.7 | 33.8 | 0.05 | 2.95 | 2.92 | 99 | 1000.4 |
| 20260507134501 | 16 | 335 | 16.1 | 24.1 | 0.03 | 2.92 | 2.90 | 99 | 1000.3 |
| 20260507133502 | 16 | 336 | 14.5 | 25.7 | 0.05 | 2.92 | 2.90 | 99 | 1000.0 |
| 20260507133003 | 16 | 346 | 14.5 | 25.7 | 0.05 | 2.92 | 2.90 | 99 | 1000.2 |
| 20260507132501 | 16 | 341 | 16.1 | 25.7 | 0.03 | 2.90 | 2.87 | 99 | 1000.2 |
| 20260507132002 | 16 | 329 | 16.1 | 30.6 | 0.05 | 2.90 | 2.87 | 99 | 999.8 |
| 20260507131502 | 16 | 347 | 16.1 | 30.6 | 0.05 | 2.90 | 2.87 | 99 | 999.6 |
| 20260507131003 | 16 | 346 | 17.7 | 29.0 | 0.05 | 2.90 | 2.87 | 99 | 999.6 |
| 20260507130502 | 16 | 348 | 16.1 | 29.0 | 0.05 | 2.90 | 2.87 | 99 | 999.5 |
| 20260507130005 | 16 | 341 | 12.9 | 25.7 | 0.05 | 2.90 | 2.87 | 99 | 999.5 |
| 20260507125003 | 16 | 359 | 9.7 | 22.5 | 0.08 | 2.90 | 2.87 | 99 | 999.2 |
| 20260507124502 | 16 | 2 | 11.3 | 25.7 | 0.10 | 2.90 | 2.87 | 99 | 998.3 |
| 20260507124002 | 16 | 14 | 14.5 | 25.7 | 0.10 | 2.90 | 2.87 | 99 | 997.7 |
| 20260507123502 | 16 | 348 | 16.1 | 29.0 | 0.10 | 2.87 | 2.87 | 99 | 998.2 |
| 20260507122502 | 15 | 354 | 14.5 | 29.0 | 0.13 | 2.87 | 2.87 | 99 | 997.7 |
| 20260507122003 | 15 | 348 | 14.5 | 29.0 | 0.13 | 2.87 | 2.84 | 99 | 998.1 |
| 20260507121501 | 15 | 342 | 16.1 | 29.0 | 0.15 | 2.87 | 2.84 | 99 | 998.1 |
| 20260507121007 | 15 | 343 | 16.1 | 29.0 | 0.15 | 2.84 | 2.82 | 99 | 998.6 |
| 20260507120502 | 15 | 2 | 16.1 | 32.2 | 0.18 | 2.84 | 2.82 | 99 | 998.6 |
| 20260507120006 | 15 | 22 | 14.5 | 32.2 | 0.20 | 2.84 | 2.82 | 99 | 998.6 |
| 20260507115501 | 15 | 21 | 16.1 | 27.4 | 0.23 | 2.84 | 2.82 | 99 | 998.4 |
| 20260507115003 | 15 | 349 | 17.7 | 30.6 | 0.23 | 2.82 | 2.79 | 99 | 998.6 |
| 20260507114502 | 15 | 8 | 16.1 | 30.6 | 0.28 | 2.79 | 2.77 | 99 | 998.2 |
| 20260507114001 | 15 | 28 | 14.5 | 25.7 | 0.33 | 2.77 | 2.77 | 99 | 999.4 |
| 20260507113500 | 15 | 355 | 12.9 | 25.7 | 0.41 | 2.77 | 2.77 | 99 | 999.3 |
| 20260507113001 | 15 | 357 | 12.9 | 24.1 | 0.41 | 2.77 | 2.74 | 99 | 999.3 |
| 20260507112500 | 15 | 28 | 12.9 | 22.5 | 0.41 | 2.74 | 2.72 | 99 | 999.1 |
| 20260507112002 | 15 | 351 | 12.9 | 22.5 | 0.43 | 2.74 | 2.72 | 99 | 999.3 |
| 20260507111502 | 15 | 347 | 11.3 | 22.5 | 0.48 | 2.72 | 2.69 | 99 | 999.4 |
| 20260507111001 | 15 | 351 | 11.3 | 22.5 | 0.48 | 2.69 | 2.67 | 99 | 999.7 |
| 20260507110500 | 15 | 359 | 9.7 | 20.9 | 0.48 | 2.67 | 2.64 | 99 | 999.6 |
| 20260507110005 | 16 | 8 | 8.0 | 16.1 | 0.46 | 2.64 | 2.62 | 99 | 1000.0 |
| 20260507105500 | 16 | 343 | 9.7 | 17.7 | 0.43 | 2.59 | 2.59 | 99 | 1000.7 |
| 20260507105001 | 16 | 357 | 8.0 | 16.1 | 0.43 | 2.59 | 2.57 | 99 | 1000.9 |
| 20260507104500 | 16 | 344 | 6.4 | 12.9 | 0.33 | 2.49 | 2.49 | 99 | 1001.4 |
| 20260507102500 | 16 | 141 | 6.4 | 11.3 | 0.28 | 2.34 | 2.31 | 99 | 1000.1 |
| 20260507102002 | 16 | 159 | 6.4 | 12.9 | 0.25 | 2.31 | 2.29 | 99 | 999.5 |
| 20260507101501 | 16 | 101 | 6.4 | 11.3 | 0.23 | 2.24 | 2.21 | 99 | 999.1 |
| 20260507101002 | 16 | 156 | 6.4 | 14.5 | 0.20 | 2.21 | 2.18 | 99 | 999.5 |
| 20260507100500 | 16 | 161 | 6.4 | 14.5 | 0.20 | 2.18 | 2.16 | 99 | 1000.0 |
| 20260507100012 | 16 | 169 | 8.0 | 14.5 | 0.23 | 2.18 | 2.16 | 99 | 999.9 |
| 20260507095500 | 16 | 161 | 12.9 | 20.9 | 0.25 | 2.18 | 2.16 | 99 | 999.9 |
| 20260507095001 | 16 | 168 | 14.5 | 22.5 | 0.25 | 2.16 | 2.13 | 99 | 1000.3 |
| 20260507094500 | 16 | 174 | 14.5 | 24.1 | 0.25 | 2.16 | 2.13 | 99 | 1000.6 |
| 20260507094002 | 16 | 168 | 16.1 | 27.4 | 0.28 | 2.13 | 2.11 | 99 | 1001.0 |
| 20260507093500 | 16 | 171 | 19.3 | 30.6 | 0.25 | 2.11 | 2.11 | 99 | 1001.2 |
| 20260507092500 | 16 | 168 | 19.3 | 27.4 | 0.23 | 2.06 | 2.03 | 99 | 1001.8 |
| 20260507091500 | 16 | 175 | 22.5 | 32.2 | 0.18 | 2.03 | 2.01 | 99 | 1002.5 |
| 20260507091002 | 17 | 180 | 20.9 | 32.2 | 0.15 | 2.01 | 1.98 | 99 | 1002.8 |
| 20260507090500 | 17 | 331 | 17.7 | 30.6 | 0.15 | 1.98 | 1.96 | 99 | 1002.8 |
| 20260507085500 | 17 | 166 | 17.7 | 30.6 | 0.08 | 1.93 | 1.91 | 99 | 1002.8 |
| 20260507085001 | 17 | 331 | 17.7 | 30.6 | 0.05 | 1.91 | 1.88 | 99 | 1002.7 |
| 20260507084500 | 17 | 270 | 16.1 | 30.6 | 0.08 | 1.91 | 1.88 | 99 | 1002.6 |
| 20260507083459 | 17 | 172 | 16.1 | 32.2 | 0.05 | 1.85 | 1.83 | 99 | 1002.3 |
| 20260507083000 | 17 | 168 | 19.3 | 29.0 | 0.10 | 1.83 | 1.83 | 99 | 1002.2 |
| 20260507082500 | 17 | 177 | 20.9 | 29.0 | 0.23 | 1.83 | 1.83 | 99 | 1002.1 |
| 20260507082000 | 17 | 238 | 17.7 | 29.0 | 0.51 | 1.83 | 1.83 | 99 | 1002.1 |
| 20260507081459 | 17 | 333 | 12.9 | 29.0 | 1.02 | 1.83 | 1.83 | 99 | 1001.8 |
| 20260507080459 | 17 | 276 | 19.3 | 29.0 | 1.63 | 1.83 | 1.83 | 98 | 1001.3 |
| 20260507080005 | 17 | 329 | 19.3 | 32.2 | 1.65 | 1.83 | 1.83 | 98 | 1001.3 |
| 20260507075459 | 17 | 270 | 16.1 | 32.2 | 1.68 | 1.83 | 1.83 | 98 | 1001.3 |
| 20260507075000 | 17 | 279 | 17.7 | 30.6 | 1.68 | 1.83 | 1.83 | 98 | 1001.0 |
| 20260507074459 | 17 | 198 | 20.9 | 35.4 | 1.65 | 1.83 | 1.80 | 98 | 1001.1 |
| 20260507074000 | 17 | 220 | 22.5 | 35.4 | 1.78 | 1.83 | 1.80 | 98 | 1001.8 |
| 20260507073459 | 17 | 217 | 30.6 | 41.8 | 1.78 | 1.80 | 1.78 | 98 | 1000.8 |
| 20260507073000 | 17 | 176 | 40.2 | 57.9 | 1.73 | 1.75 | 1.73 | 98 | 1001.2 |
| 20260507072459 | 17 | 168 | 46.7 | 59.5 | 1.60 | 1.63 | 1.60 | 98 | 1001.8 |
| 20260507072000 | 17 | 170 | 41.8 | 56.3 | 1.30 | 1.32 | 1.30 | 97 | 1001.6 |
| 20260507071459 | 17 | 175 | 29.0 | 54.7 | 0.79 | 0.81 | 0.79 | 97 | 1001.5 |
| 20260507071000 | 17 | 169 | 22.5 | 38.6 | 0.41 | 0.43 | 0.41 | 97 | 1001.2 |
| 20260507070459 | 17 | 170 | 22.5 | 33.8 | 0.20 | 0.23 | 0.20 | 97 | 1000.5 |
| 20260507070008 | 17 | 171 | 22.5 | 38.6 | 0.15 | 0.18 | 0.15 | 96 | 1000.8 |
| 20260507065459 | 17 | 177 | 25.7 | 41.8 | 0.15 | 0.15 | 0.15 | 96 | 1000.7 |
| 20260507065000 | 18 | 181 | 29.0 | 49.9 | 0.15 | 0.15 | 0.15 | 94 | 1000.8 |
| 20260507064500 | 18 | 170 | 29.0 | 49.9 | 0.15 | 0.15 | 0.15 | 92 | 1000.5 |
| 20260507064000 | 20 | 169 | 30.6 | 54.7 | 0.03 | 0.05 | 0.03 | 88 | 1000.7 |
| 20260507063459 | 21 | 172 | 25.7 | 54.7 | 0.00 | 0.03 | 0.00 | 84 | 1001.2 |
| 20260507063001 | 23 | 176 | 14.5 | 49.9 | 0.00 | 0.03 | 0.00 | 85 | 1001.0 |
| 20260507062001 | 23 | 341 | 17.7 | 25.7 | 0.00 | 0.03 | 0.00 | 86 | 999.6 |
| 20260507061459 | 23 | 337 | 17.7 | 25.7 | 0.00 | 0.03 | 0.00 | 85 | 999.9 |
| 20260507061000 | 23 | 339 | 17.7 | 27.4 | 0.00 | 0.03 | 0.00 | 84 | 999.7 |
| 20260507060500 | 24 | 321 | 19.3 | 29.0 | 0.00 | 0.03 | 0.00 | 84 | 999.7 |
| 20260507055459 | 23 | 342 | 17.7 | 32.2 | 0.00 | 0.03 | 0.00 | 85 | 999.8 |
| 20260507055000 | 23 | 336 | 16.1 | 29.0 | 0.00 | 0.03 | 0.00 | 85 | 999.9 |
| 20260507054459 | 23 | 334 | 16.1 | 29.0 | 0.00 | 0.03 | 0.00 | 86 | 999.9 |
| 20260507054000 | 23 | 348 | 16.1 | 30.6 | 0.00 | 0.03 | 0.00 | 86 | 1000.1 |
| 20260507053500 | 23 | 339 | 14.5 | 30.6 | 0.00 | 0.03 | 0.00 | 87 | 1000.3 |
| 20260507053000 | 22 | 339 | 12.9 | 24.1 | 0.00 | 0.03 | 0.00 | 88 | 1000.4 |
| 20260507052500 | 22 | 342 | 11.3 | 22.5 | 0.00 | 0.03 | 0.00 | 90 | 1000.7 |
| 20260507052000 | 22 | 340 | 9.7 | 19.3 | 0.00 | 0.03 | 0.00 | 90 | 1000.7 |
| 20260507051459 | 22 | 348 | 9.7 | 16.1 | 0.00 | 0.03 | 0.00 | 90 | 1000.8 |
| 20260507051001 | 22 | 338 | 9.7 | 19.3 | 0.00 | 0.03 | 0.00 | 90 | 1000.9 |
| 20260507045459 | 22 | 351 | 11.3 | 20.9 | 0.00 | 0.03 | 0.00 | 90 | 1001.1 |
| 20260507045000 | 22 | 339 | 11.3 | 22.5 | 0.00 | 0.03 | 0.00 | 90 | 1001.2 |
| 20260507044500 | 22 | 350 | 12.9 | 22.5 | 0.00 | 0.03 | 0.00 | 91 | 1001.2 |
| 20260507044000 | 22 | 336 | 11.3 | 22.5 | 0.00 | 0.03 | 0.00 | 92 | 1001.4 |
| 20260507043459 | 22 | 341 | 11.3 | 22.5 | 0.00 | 0.03 | 0.00 | 92 | 1001.4 |
| 20260507043000 | 22 | 344 | 11.3 | 22.5 | 0.00 | 0.03 | 0.00 | 92 | 1001.6 |
| 20260507042459 | 21 | 342 | 11.3 | 20.9 | 0.00 | 0.03 | 0.00 | 93 | 1001.7 |
| 20260507041459 | 21 | 345 | 9.7 | 17.7 | 0.00 | 0.03 | 0.00 | 93 | 1001.6 |
| 20260507041000 | 21 | 344 | 8.0 | 17.7 | 0.00 | 0.03 | 0.00 | 93 | 1001.8 |
| 20260507040005 | 21 | 357 | 8.0 | 16.1 | 0.00 | 0.03 | 0.00 | 93 | 1001.9 |
| 20260507035459 | 21 | 344 | 9.7 | 19.3 | 0.00 | 0.03 | 0.00 | 93 | 1001.9 |
| 20260507035000 | 21 | 351 | 9.7 | 19.3 | 0.00 | 0.03 | 0.00 | 93 | 1002.0 |
| 20260507033500 | 21 | 348 | 8.0 | 16.1 | 0.00 | 0.03 | 0.00 | 93 | 1002.1 |
| 20260507033000 | 21 | 345 | 9.7 | 16.1 | 0.00 | 0.03 | 0.00 | 93 | 1002.2 |
| 20260507032002 | 21 | 358 | 9.7 | 17.7 | 0.00 | 0.03 | 0.00 | 92 | 1002.2 |
| 20260507031459 | 21 | 345 | 11.3 | 20.9 | 0.00 | 0.03 | 0.00 | 92 | 1002.3 |
| 20260507031000 | 21 | 338 | 11.3 | 20.9 | 0.00 | 0.03 | 0.00 | 92 | 1002.3 |
| 20260507030459 | 21 | 342 | 11.3 | 27.4 | 0.00 | 0.03 | 0.00 | 92 | 1002.2 |
| 20260507030011 | 22 | 337 | 11.3 | 27.4 | 0.00 | 0.03 | 0.00 | 92 | 1002.2 |
| 20260507025501 | 22 | 342 | 11.3 | 24.1 | 0.00 | 0.03 | 0.03 | 92 | 1002.1 |
| 20260507025003 | 22 | 354 | 11.3 | 20.9 | 0.00 | 0.03 | 0.03 | 92 | 1002.1 |
| 20260507024501 | 22 | 345 | 11.3 | 22.5 | 0.00 | 0.03 | 0.03 | 92 | 1002.1 |
| 20260507024002 | 22 | 343 | 11.3 | 22.5 | 0.00 | 0.03 | 0.03 | 92 | 1002.0 |
| 20260507023501 | 22 | 348 | 12.9 | 25.7 | 0.00 | 0.03 | 0.03 | 92 | 1001.8 |
| 20260507023002 | 22 | 360 | 12.9 | 25.7 | 0.00 | 0.03 | 0.03 | 92 | 1001.6 |
| 20260507022502 | 22 | 353 | 14.5 | 32.2 | 0.00 | 0.03 | 0.03 | 92 | 1001.6 |
| 20260507021003 | 22 | 355 | 12.9 | 25.7 | 0.00 | 0.03 | 0.03 | 92 | 1001.7 |
| 20260507020500 | 22 | 349 | 14.5 | 25.7 | 0.00 | 0.03 | 0.03 | 92 | 1001.9 |
| 20260507020007 | 22 | 358 | 14.5 | 33.8 | 0.00 | 0.03 | 0.03 | 91 | 1002.0 |
| 20260507015502 | 22 | 3 | 12.9 | 30.6 | 0.00 | 0.03 | 0.03 | 92 | 1002.1 |
| 20260507015004 | 22 | 11 | 11.3 | 29.0 | 0.00 | 0.03 | 0.03 | 92 | 1002.2 |
| 20260507014502 | 22 | 357 | 11.3 | 24.1 | 0.00 | 0.03 | 0.03 | 92 | 1002.1 |
| 20260507014005 | 22 | 348 | 12.9 | 25.7 | 0.03 | 0.03 | 0.03 | 92 | 1002.2 |
| 20260507013502 | 22 | 349 | 14.5 | 29.0 | 0.03 | 0.03 | 0.03 | 92 | 1002.2 |
| 20260507012503 | 22 | 345 | 16.1 | 33.8 | 0.03 | 0.03 | 0.03 | 92 | 1002.2 |
| 20260507012003 | 22 | 354 | 16.1 | 33.8 | 0.03 | 0.03 | 0.03 | 92 | 1002.5 |
| 20260507011501 | 22 | 350 | 17.7 | 37.0 | 0.03 | 0.03 | 0.03 | 92 | 1002.3 |
| 20260507010501 | 22 | 23 | 16.1 | 33.8 | 0.03 | 0.03 | 0.03 | 92 | 1002.5 |
| 20260507010010 | 22 | 345 | 16.1 | 37.0 | 0.03 | 0.03 | 0.03 | 92 | 1002.8 |
| 20260507005502 | 22 | 345 | 16.1 | 37.0 | 0.03 | 0.03 | 0.03 | 92 | 1002.8 |
| 20260507005001 | 22 | 348 | 17.7 | 30.6 | 0.03 | 0.03 | 0.03 | 92 | 1003.5 |
| 20260507004501 | 22 | 348 | 16.1 | 27.4 | 0.03 | 0.03 | 0.03 | 92 | 1004.0 |
| 20260507004002 | 22 | 347 | 14.5 | 25.7 | 0.00 | 0.00 | 0.00 | 92 | 1004.6 |
| 20260507003501 | 22 | 345 | 12.9 | 30.6 | 0.00 | 0.00 | 0.00 | 92 | 1004.5 |
| 20260507003002 | 22 | 354 | 14.5 | 30.6 | 0.00 | 0.00 | 0.00 | 92 | 1004.7 |
| 20260507002002 | 22 | 350 | 12.9 | 27.4 | 0.00 | 0.00 | 0.00 | 93 | 1004.9 |
| 20260507001501 | 22 | 353 | 11.3 | 22.5 | 0.00 | 0.00 | 0.00 | 92 | 1005.2 |
| 20260507001003 | 22 | 349 | 11.3 | 22.5 | 0.00 | 0.00 | 0.00 | 93 | 1005.6 |
| 20260507000501 | 22 | 350 | 9.7 | 19.3 | 0.00 | 0.00 | 0.00 | 93 | 1005.9 |
| 20260506235500 | 22 | 17 | 8.0 | 17.7 | 0.00 | 0.00 | 0.00 | 93 | 1006.3 |
| 20260506235000 | 22 | 29 | 8.0 | 16.1 | 0.00 | 0.00 | 0.00 | 93 | 1006.5 |
| 20260506234002 | 21 | 7 | 9.7 | 20.9 | 0.00 | 0.00 | 0.00 | 93 | 1006.8 |
| 20260506233002 | 21 | 354 | 9.7 | 19.3 | 0.00 | 0.00 | 0.00 | 93 | 1006.9 |
| 20260506232459 | 21 | 353 | 11.3 | 19.3 | 0.00 | 0.00 | 0.00 | 93 | 1007.0 |
| 20260506232002 | 21 | 353 | 11.3 | 22.5 | 0.00 | 0.00 | 0.00 | 93 | 1007.0 |
| 20260506231501 | 21 | 353 | 11.3 | 22.5 | 0.00 | 0.00 | 0.00 | 93 | 1007.2 |
| 20260506231002 | 21 | 348 | 11.3 | 25.7 | 0.00 | 0.00 | 0.00 | 94 | 1007.3 |
| 20260506230501 | 21 | 9 | 12.9 | 25.7 | 0.00 | 0.00 | 0.00 | 94 | 1007.4 |
| 20260506230006 | 21 | 352 | 11.3 | 24.1 | 0.00 | 0.00 | 0.00 | 94 | 1007.4 |
| 20260506225501 | 21 | 357 | 11.3 | 22.5 | 0.00 | 0.00 | 0.00 | 94 | 1007.7 |